createdAt,value
2022-07-27T00:04:50.546Z,4.72
2022-07-27T00:09:53.117Z,5.13
2022-07-27T00:14:58.986Z,4.82
2022-07-27T00:20:00.846Z,4.88
2022-07-27T00:25:02.704Z,4.68
2022-07-27T00:30:05.113Z,5.20
2022-07-27T00:35:07.845Z,4.53
2022-07-27T00:40:10.547Z,4.70
2022-07-27T00:45:12.628Z,4.72
2022-07-27T00:50:14.513Z,4.20
2022-07-27T00:55:16.347Z,4.82
2022-07-27T01:00:18.348Z,4.55
2022-07-27T01:05:20.319Z,4.57
2022-07-27T01:10:23.037Z,4.32
2022-07-27T01:15:25.207Z,4.93
2022-07-27T01:20:27.163Z,4.72
2022-07-27T01:25:28.935Z,4.57
2022-07-27T01:30:30.841Z,4.65
2022-07-27T01:35:33.505Z,4.60
2022-07-27T01:40:36.922Z,5.00
2022-07-27T01:45:40.003Z,5.05
2022-07-27T01:50:44.849Z,4.85
2022-07-27T01:55:51.294Z,4.55
2022-07-27T02:00:53.214Z,5.00
2022-07-27T02:05:55.153Z,4.63
2022-07-27T02:11:15.765Z,4.65
2022-07-27T02:16:18.655Z,3.72
2022-07-27T02:21:20.456Z,4.35
2022-07-27T02:26:22.254Z,4.30
2022-07-27T02:31:24.232Z,4.55
2022-07-27T02:36:29.136Z,4.13
2022-07-27T02:41:31.172Z,4.38
2022-07-27T02:46:33.058Z,4.00
2022-07-27T02:51:35.096Z,3.78
2022-07-27T02:56:37.926Z,4.07
2022-07-27T03:01:39.937Z,3.97
2022-07-27T03:06:42.460Z,3.67
2022-07-27T03:11:44.354Z,3.70
2022-07-27T03:16:46.185Z,3.83
2022-07-27T03:21:48.008Z,5.78
2022-07-27T03:26:49.808Z,3.42
2022-07-27T03:31:51.589Z,3.10
2022-07-27T03:36:53.366Z,3.65
2022-07-27T03:41:55.148Z,3.20
2022-07-27T03:46:57.157Z,3.20
2022-07-27T03:51:59.217Z,3.17
2022-07-27T03:57:02.211Z,3.60
2022-07-27T04:02:05.055Z,2.80
2022-07-27T04:07:07.931Z,5.07
2022-07-27T04:12:09.848Z,2.92
2022-07-27T04:17:12.507Z,2.88
2022-07-27T04:22:34.278Z,2.65
2022-07-27T04:27:36.326Z,4.90
2022-07-27T04:32:38.420Z,2.38
2022-07-27T04:37:40.408Z,2.30
2022-07-27T04:43:01.532Z,2.63
2022-07-27T04:48:08.197Z,2.65
2022-07-27T04:53:11.072Z,2.03
2022-07-27T04:58:14.256Z,2.15
2022-07-27T05:03:16.189Z,2.40
2022-07-27T05:08:20.322Z,2.10
2022-07-27T05:13:22.247Z,2.25
2022-07-27T05:18:25.550Z,2.13
2022-07-27T05:23:27.544Z,1.70
2022-07-27T05:28:29.352Z,2.10
2022-07-27T05:33:31.229Z,2.53
2022-07-27T05:38:39.131Z,1.83
2022-07-27T05:43:41.143Z,1.50
2022-07-27T05:48:43.263Z,1.42
2022-07-27T05:53:45.162Z,1.83
2022-07-27T05:58:46.974Z,1.77
2022-07-27T06:03:48.975Z,1.42
2022-07-27T06:08:50.793Z,1.90
2022-07-27T06:13:52.935Z,1.70
2022-07-27T06:18:54.690Z,1.65
2022-07-27T06:23:57.114Z,1.98
2022-07-27T06:29:01.095Z,1.73
2022-07-27T06:34:04.062Z,1.35
2022-07-27T06:44:14.383Z,1.60
2022-07-27T06:49:17.461Z,1.80
2022-07-27T06:54:19.578Z,1.80
2022-07-27T06:59:21.413Z,1.98
2022-07-27T07:04:25.325Z,1.48
2022-07-27T07:09:28.721Z,1.40
2022-07-27T07:14:31.471Z,2.00
2022-07-27T07:19:33.965Z,1.98
2022-07-27T07:24:36.155Z,1.33
2022-07-27T07:29:37.933Z,1.65
2022-07-27T07:34:39.774Z,1.75
2022-07-27T07:39:41.842Z,2.03
2022-07-27T07:44:43.651Z,2.22
2022-07-27T07:49:45.501Z,1.50
2022-07-27T07:54:47.304Z,2.33
2022-07-27T07:59:49.421Z,1.52
2022-07-27T08:04:51.991Z,1.70
2022-07-27T08:09:53.752Z,2.42
2022-07-27T08:14:55.592Z,1.73
2022-07-27T08:19:57.418Z,1.52
2022-07-27T08:24:59.246Z,1.45
2022-07-27T08:30:02.521Z,1.65
2022-07-27T08:35:04.825Z,1.25
2022-07-27T08:40:38.691Z,1.40
2022-07-27T08:45:30.376Z,1.48
2022-07-27T08:50:34.646Z,1.50
2022-07-27T08:55:39.397Z,1.50
2022-07-27T09:00:44.164Z,1.48
2022-07-27T09:05:52.553Z,1.38
2022-07-27T09:10:55.839Z,1.30
2022-07-27T09:16:20.674Z,1.60
2022-07-27T09:21:24.267Z,1.52
2022-07-27T09:26:32.483Z,1.35
2022-07-27T09:31:47.130Z,1.90
2022-07-27T09:36:58.235Z,1.83
2022-07-27T09:42:02.499Z,1.42
2022-07-27T09:47:27.089Z,1.80
2022-07-27T09:52:31.229Z,1.88
2022-07-27T09:57:53.404Z,1.50
2022-07-27T10:02:55.641Z,1.75
2022-07-27T10:07:57.473Z,1.63
2022-07-27T10:12:59.277Z,1.60
2022-07-27T10:18:07.881Z,1.88
2022-07-27T10:23:25.834Z,1.80
2022-07-27T10:28:30.254Z,3.20
2022-07-27T10:33:43.489Z,2.00
2022-07-27T10:38:56.461Z,1.75
2022-07-27T10:44:30.670Z,1.73
2022-07-27T10:49:40.669Z,1.70
2022-07-27T10:54:45.781Z,1.70
2022-07-27T11:00:08.300Z,1.73
2022-07-27T11:05:48.378Z,2.25
2022-07-27T11:10:44.372Z,4.15
2022-07-27T11:21:38.499Z,4.30
2022-07-27T11:26:44.698Z,4.00
2022-07-27T11:31:57.664Z,3.05
2022-07-27T11:37:03.948Z,3.22
2022-07-27T11:42:12.018Z,2.58
2022-07-27T11:47:19.039Z,2.03
2022-07-27T11:52:20.914Z,3.20
2022-07-27T11:57:33.877Z,3.15
2022-07-27T12:02:35.767Z,2.90
2022-07-27T12:07:38.048Z,2.90
2022-07-27T12:12:39.867Z,1.58
2022-07-27T12:17:43.257Z,1.90
2022-07-27T12:22:53.241Z,4.10
2022-07-27T12:27:59.644Z,2.35
2022-07-27T12:33:03.556Z,2.50
2022-07-27T12:38:08.351Z,2.38
2022-07-27T12:43:10.466Z,2.13
2022-07-27T12:48:16.564Z,2.15
2022-07-27T12:53:18.446Z,2.53
2022-07-27T12:58:20.278Z,2.22
2022-07-27T13:03:22.563Z,2.25
2022-07-27T13:08:24.511Z,2.58
2022-07-27T13:13:26.325Z,2.38
2022-07-27T13:18:28.192Z,2.58
2022-07-27T13:23:30.070Z,4.80
2022-07-27T13:28:31.916Z,1.92
2022-07-27T13:33:33.841Z,2.40
2022-07-27T13:38:36.040Z,2.15
2022-07-27T13:43:37.925Z,1.67
2022-07-27T13:48:39.815Z,2.30
2022-07-27T13:53:41.671Z,2.28
2022-07-27T13:58:44.274Z,2.00
2022-07-27T14:03:46.148Z,1.98
2022-07-27T14:08:48.360Z,2.05
2022-07-27T14:13:50.256Z,2.10
2022-07-27T14:18:52.641Z,2.35
2022-07-27T14:23:54.527Z,1.90
2022-07-27T14:28:57.728Z,2.13
2022-07-27T14:33:59.525Z,1.60
2022-07-27T14:39:01.327Z,2.20
2022-07-27T14:44:03.601Z,2.00
2022-07-27T14:49:06.785Z,1.63
2022-07-27T14:54:09.270Z,1.98
2022-07-27T14:59:11.489Z,2.38
2022-07-27T15:04:13.531Z,1.80
2022-07-27T15:09:16.432Z,2.30
2022-07-27T15:14:18.576Z,1.77
2022-07-27T15:19:20.699Z,2.22
2022-07-27T15:24:22.502Z,2.13
2022-07-27T15:29:24.432Z,1.67
2022-07-27T15:34:26.504Z,2.95
2022-07-27T15:39:28.552Z,2.15
2022-07-27T15:44:30.628Z,2.10
2022-07-27T15:49:32.522Z,1.83
2022-07-27T15:54:38.946Z,2.28
2022-07-27T15:59:44.184Z,1.80
2022-07-27T16:04:47.417Z,1.75
2022-07-27T16:09:49.309Z,1.48
2022-07-27T16:14:51.116Z,1.67
2022-07-27T16:19:52.972Z,1.60
2022-07-27T16:24:54.990Z,1.95
2022-07-27T16:29:57.116Z,1.27
2022-07-27T16:34:59.001Z,1.50
2022-07-27T16:40:00.945Z,2.42
2022-07-27T16:45:02.768Z,1.30
2022-07-27T16:50:05.920Z,1.70
2022-07-27T16:55:08.164Z,1.85
2022-07-27T17:00:10.651Z,2.30
2022-07-27T17:05:12.852Z,1.63
2022-07-27T17:10:26.671Z,1.52
2022-07-27T17:15:29.261Z,1.55
2022-07-27T17:20:34.790Z,1.70
2022-07-27T17:25:37.548Z,1.65
2022-07-27T17:30:39.399Z,1.30
2022-07-27T17:35:41.231Z,1.60
2022-07-27T17:40:47.251Z,1.60
2022-07-27T17:45:49.219Z,1.95
2022-07-27T17:50:51.117Z,1.30
2022-07-27T17:55:53.975Z,1.50
2022-07-27T18:00:55.788Z,1.30
2022-07-27T18:05:57.551Z,1.27
2022-07-27T18:10:59.651Z,1.70
2022-07-27T18:16:01.579Z,1.52
2022-07-27T18:21:04.127Z,1.35
2022-07-27T18:26:06.661Z,1.40
2022-07-27T18:31:10.378Z,1.90
2022-07-27T18:36:14.802Z,1.70
2022-07-27T18:41:18.971Z,1.38
2022-07-27T18:46:22.534Z,1.30
2022-07-27T18:51:24.733Z,1.48
2022-07-27T18:56:26.634Z,1.55
2022-07-27T19:01:28.595Z,2.13
2022-07-27T19:06:30.428Z,5.18
2022-07-27T19:11:32.382Z,1.63
2022-07-27T19:16:35.798Z,1.83
2022-07-27T19:21:37.651Z,3.22
2022-07-27T19:26:40.655Z,1.60
2022-07-27T19:31:42.601Z,2.00
2022-07-27T19:36:44.869Z,1.50
2022-07-27T19:41:46.664Z,1.40
2022-07-27T19:46:48.434Z,1.40
2022-07-27T19:51:50.570Z,1.27
2022-07-27T19:56:52.386Z,1.33
2022-07-27T20:01:54.257Z,1.40
2022-07-27T20:06:56.128Z,4.30
2022-07-27T20:12:00.377Z,2.60
2022-07-27T20:17:02.619Z,1.50
2022-07-27T20:22:04.454Z,1.27
2022-07-27T20:27:06.232Z,1.48
2022-07-27T20:32:08.152Z,1.20
2022-07-27T20:37:11.269Z,1.38
2022-07-27T20:42:13.123Z,1.40
2022-07-27T20:47:15.062Z,1.20
2022-07-27T20:52:17.303Z,1.40
2022-07-27T20:57:19.084Z,1.88
2022-07-27T21:02:21.039Z,1.60
2022-07-27T21:07:22.861Z,1.20
2022-07-27T21:12:24.651Z,1.52
2022-07-27T21:17:26.579Z,1.38
2022-07-27T21:22:28.781Z,1.23
2022-07-27T21:27:30.593Z,1.17
2022-07-27T21:32:33.749Z,1.50
2022-07-27T21:37:35.743Z,1.48
2022-07-27T21:42:37.547Z,1.73
2022-07-27T21:47:39.326Z,1.85
2022-07-27T21:52:41.112Z,1.80
2022-07-27T21:57:42.972Z,1.77
2022-07-27T22:02:44.802Z,2.10
2022-07-27T22:07:46.629Z,1.60
2022-07-27T22:12:48.556Z,1.95
2022-07-27T22:17:51.196Z,1.60
2022-07-27T22:22:53.093Z,1.70
2022-07-27T22:27:54.930Z,1.85
2022-07-27T22:32:56.973Z,1.75
2022-07-27T22:37:58.752Z,2.38
2022-07-27T22:43:00.569Z,1.60
2022-07-27T22:48:02.420Z,2.00
2022-07-27T22:53:04.633Z,2.10
2022-07-27T22:58:06.723Z,1.90
2022-07-27T23:03:08.800Z,1.88
2022-07-27T23:08:10.608Z,1.30
2022-07-27T23:13:16.944Z,1.38
2022-07-27T23:18:18.733Z,1.58
2022-07-27T23:23:20.836Z,1.73
2022-07-27T23:28:22.690Z,1.70
2022-07-27T23:33:24.498Z,1.50
2022-07-27T23:38:26.296Z,1.35
2022-07-27T23:43:28.149Z,1.55
2022-07-27T23:48:30.166Z,1.58
2022-07-27T23:53:32.048Z,1.27
2022-07-27T23:58:33.933Z,1.55
